createdAt,value
2023-11-23T00:00:20.689Z,98.45
2023-11-23T00:02:47.754Z,110.80
2023-11-23T00:05:14.880Z,104.03
2023-11-23T00:07:41.823Z,100.40
2023-11-23T00:10:08.853Z,120.47
2023-11-23T00:12:35.699Z,117.90
2023-11-23T00:15:02.892Z,104.80
2023-11-23T00:17:31.778Z,107.97
2023-11-23T00:19:59.411Z,110.60
2023-11-23T00:22:27.332Z,117.07
2023-11-23T00:24:55.483Z,120.88
2023-11-23T00:27:22.554Z,111.97
2023-11-23T00:29:49.525Z,114.90
2023-11-23T00:32:16.614Z,118.60
2023-11-23T00:34:43.505Z,124.65
2023-11-23T00:37:10.717Z,134.00
2023-11-23T00:39:38.162Z,124.47
2023-11-23T00:42:05.438Z,123.07
2023-11-23T00:44:32.667Z,134.13
2023-11-23T00:46:59.989Z,132.43
2023-11-23T00:49:28.140Z,113.18
2023-11-23T00:51:55.182Z,123.05
2023-11-23T00:54:22.793Z,117.57
2023-11-23T00:56:49.786Z,124.80
2023-11-23T00:59:16.708Z,114.25
2023-11-23T01:01:43.792Z,115.30
2023-11-23T01:04:11.082Z,120.60
2023-11-23T01:06:38.018Z,122.43
2023-11-23T01:09:04.963Z,119.75
2023-11-23T01:11:32.273Z,124.18
2023-11-23T01:13:59.329Z,126.47
2023-11-23T01:16:27.649Z,136.50
2023-11-23T01:18:54.580Z,141.88
2023-11-23T01:21:21.426Z,129.57
2023-11-23T01:23:48.318Z,132.55
2023-11-23T01:26:15.290Z,127.32
2023-11-23T01:28:42.139Z,123.93
2023-11-23T01:31:10.453Z,141.13
2023-11-23T01:33:37.552Z,136.23
2023-11-23T01:36:05.004Z,145.50
2023-11-23T01:38:31.937Z,137.63
2023-11-23T01:40:58.961Z,144.20
2023-11-23T01:43:25.896Z,156.60
2023-11-23T01:45:52.890Z,124.43
2023-11-23T01:48:20.991Z,135.32
2023-11-23T01:50:49.366Z,146.68
2023-11-23T01:53:18.387Z,147.00
2023-11-23T01:55:45.783Z,128.65
2023-11-23T01:58:14.754Z,158.85
2023-11-23T02:00:42.760Z,151.10
2023-11-23T02:03:10.935Z,152.45
2023-11-23T02:05:52.808Z,147.80
2023-11-23T02:08:19.744Z,137.95
2023-11-23T02:10:46.685Z,144.05
2023-11-23T02:13:13.812Z,122.68
2023-11-23T02:15:42.874Z,132.93
2023-11-23T02:18:12.707Z,158.55
2023-11-23T02:20:40.817Z,133.38
2023-11-23T02:23:07.671Z,127.35
2023-11-23T02:25:35.377Z,126.38
2023-11-23T02:28:02.433Z,133.52
2023-11-23T02:30:29.440Z,139.60
2023-11-23T02:32:57.186Z,126.10
2023-11-23T02:35:24.276Z,143.32
2023-11-23T02:37:51.090Z,130.52
2023-11-23T02:40:17.942Z,134.43
2023-11-23T02:42:46.458Z,121.70
2023-11-23T02:45:14.064Z,128.65
2023-11-23T02:47:44.072Z,134.73
2023-11-23T02:50:12.590Z,116.90
2023-11-23T02:52:39.944Z,114.90
2023-11-23T02:55:08.720Z,108.70
2023-11-23T02:57:35.829Z,105.75
2023-11-23T03:00:02.771Z,108.20
2023-11-23T03:02:29.761Z,112.90
2023-11-23T03:04:56.648Z,108.75
2023-11-23T03:07:23.602Z,113.47
2023-11-23T03:09:50.473Z,107.10
2023-11-23T03:12:17.633Z,97.40
2023-11-23T03:14:45.088Z,105.18
2023-11-23T03:17:12.094Z,95.97
2023-11-23T03:19:39.068Z,90.88
2023-11-23T03:22:06.450Z,93.63
2023-11-23T03:24:33.559Z,74.75
2023-11-23T03:27:00.501Z,81.82
2023-11-23T03:29:27.446Z,67.05
2023-11-23T03:31:54.305Z,67.03
2023-11-23T03:34:21.899Z,72.20
2023-11-23T03:36:49.198Z,64.22
2023-11-23T03:39:16.218Z,72.13
2023-11-23T03:41:43.136Z,74.55
2023-11-23T03:44:10.214Z,60.20
2023-11-23T03:46:37.059Z,56.55
2023-11-23T03:49:05.422Z,58.65
2023-11-23T03:51:32.687Z,56.90
2023-11-23T03:54:00.111Z,53.67
2023-11-23T03:56:27.194Z,53.42
2023-11-23T03:58:54.085Z,51.78
2023-11-23T04:01:23.187Z,57.08
2023-11-23T04:03:50.110Z,43.97
2023-11-23T04:06:17.016Z,41.75
2023-11-23T04:08:43.889Z,44.95
2023-11-23T04:11:11.522Z,38.70
2023-11-23T04:13:38.397Z,38.50
2023-11-23T04:16:05.510Z,39.63
2023-11-23T04:18:32.398Z,30.00
2023-11-23T04:20:59.351Z,26.63
2023-11-23T04:23:26.222Z,30.13
2023-11-23T04:25:53.112Z,25.15
2023-11-23T04:28:19.977Z,26.85
2023-11-23T04:30:46.806Z,25.00
2023-11-23T04:33:13.758Z,20.92
2023-11-23T04:35:40.621Z,27.42
2023-11-23T04:38:07.462Z,25.88
2023-11-23T04:40:34.377Z,27.65
2023-11-23T04:43:01.195Z,22.45
2023-11-23T04:45:28.232Z,22.85
2023-11-23T04:47:55.195Z,25.92
2023-11-23T04:50:22.697Z,30.88
2023-11-23T04:52:49.909Z,30.42
2023-11-23T04:55:16.938Z,20.42
2023-11-23T04:57:43.963Z,21.83
2023-11-23T05:00:11.944Z,32.22
2023-11-23T05:02:44.299Z,19.83
2023-11-23T05:05:14.923Z,22.30
2023-11-23T05:07:41.988Z,32.15
2023-11-23T05:10:09.401Z,27.02
2023-11-23T05:12:36.800Z,19.08
2023-11-23T05:15:07.342Z,29.70
2023-11-23T05:17:34.463Z,28.90
2023-11-23T05:20:01.478Z,24.98
2023-11-23T05:22:28.448Z,20.00
2023-11-23T05:24:55.291Z,24.83
2023-11-23T05:27:22.537Z,28.88
2023-11-23T05:29:51.348Z,27.75
2023-11-23T05:32:19.737Z,21.65
2023-11-23T05:34:47.291Z,20.15
2023-11-23T05:37:14.194Z,26.10
2023-11-23T05:39:44.753Z,26.02
2023-11-23T05:42:12.382Z,27.73
2023-11-23T05:44:39.369Z,23.30
2023-11-23T05:47:06.599Z,24.70
2023-11-23T05:49:33.820Z,19.60
2023-11-23T05:52:01.201Z,18.85
2023-11-23T05:54:28.477Z,22.45
2023-11-23T05:56:55.468Z,20.98
2023-11-23T05:59:22.625Z,24.25
2023-11-23T06:01:49.740Z,24.50
2023-11-23T06:04:16.958Z,23.33
2023-11-23T06:06:44.209Z,22.65
2023-11-23T06:09:11.638Z,24.17
2023-11-23T06:11:38.536Z,23.15
2023-11-23T06:14:05.765Z,18.98
2023-11-23T06:16:32.750Z,28.55
2023-11-23T06:19:03.353Z,24.88
2023-11-23T06:21:31.135Z,20.17
2023-11-23T06:23:58.186Z,27.73
2023-11-23T06:26:25.092Z,21.33
2023-11-23T06:28:53.273Z,21.98
2023-11-23T06:31:20.263Z,27.50
2023-11-23T06:33:47.233Z,25.48
2023-11-23T06:36:14.324Z,17.42
2023-11-23T06:38:41.268Z,28.73
2023-11-23T06:41:21.271Z,21.83
2023-11-23T06:43:52.884Z,24.50
2023-11-23T06:46:21.238Z,21.00
2023-11-23T06:48:48.485Z,22.85
2023-11-23T06:51:15.860Z,17.35
2023-11-23T06:53:49.007Z,18.63
2023-11-23T06:58:47.592Z,21.25
2023-11-23T07:01:15.636Z,17.25
2023-11-23T07:03:43.486Z,21.23
2023-11-23T07:06:10.841Z,27.35
2023-11-23T07:08:38.822Z,20.38
2023-11-23T07:11:06.124Z,21.98
2023-11-23T07:13:36.271Z,18.90
2023-11-23T07:16:04.413Z,17.55
2023-11-23T07:18:31.920Z,22.52
2023-11-23T07:20:58.997Z,25.13
2023-11-23T07:23:26.663Z,15.88
2023-11-23T07:25:54.115Z,15.40
2023-11-23T07:28:28.710Z,30.08
2023-11-23T07:30:57.731Z,23.10
2023-11-23T07:33:35.967Z,25.83
2023-11-23T07:36:06.710Z,19.77
2023-11-23T07:38:34.111Z,26.25
2023-11-23T07:41:02.499Z,21.48
2023-11-23T07:43:34.199Z,19.55
2023-11-23T07:46:01.539Z,20.48
2023-11-23T07:48:28.798Z,20.08
2023-11-23T07:50:56.382Z,24.73
2023-11-23T07:53:27.447Z,16.52
2023-11-23T07:55:56.117Z,20.58
2023-11-23T07:58:23.064Z,17.80
2023-11-23T08:00:50.466Z,15.52
2023-11-23T08:03:17.664Z,23.67
2023-11-23T08:05:46.982Z,23.90
2023-11-23T08:08:14.923Z,21.30
2023-11-23T08:10:41.826Z,21.50
2023-11-23T08:13:09.465Z,19.98
2023-11-23T08:15:37.398Z,23.70
2023-11-23T08:18:08.024Z,25.08
2023-11-23T08:20:37.841Z,13.07
2023-11-23T08:23:05.879Z,16.02
2023-11-23T08:25:32.772Z,24.00
2023-11-23T08:27:59.629Z,17.42
2023-11-23T08:30:26.564Z,20.40
2023-11-23T08:32:54.066Z,15.70
2023-11-23T08:35:21.106Z,26.90
2023-11-23T08:37:49.190Z,22.65
2023-11-23T08:40:16.297Z,25.35
2023-11-23T08:42:43.565Z,26.15
2023-11-23T08:45:10.967Z,21.00
2023-11-23T08:47:37.941Z,16.08
2023-11-23T08:50:07.153Z,22.52
2023-11-23T08:52:34.073Z,24.60
2023-11-23T08:55:00.913Z,16.83
2023-11-23T08:57:29.603Z,13.15
2023-11-23T08:59:56.692Z,22.60
2023-11-23T09:02:23.763Z,16.67
2023-11-23T09:04:50.933Z,14.43
2023-11-23T09:07:18.669Z,18.08
2023-11-23T09:09:45.567Z,22.42
2023-11-23T09:12:13.673Z,22.98
2023-11-23T09:14:47.306Z,20.48
2023-11-23T09:17:20.449Z,12.93
2023-11-23T09:19:48.359Z,19.38
2023-11-23T09:22:15.491Z,17.58
2023-11-23T09:24:43.765Z,15.60
2023-11-23T09:27:11.247Z,16.77
2023-11-23T09:29:38.412Z,19.05
2023-11-23T09:32:06.649Z,22.92
2023-11-23T09:34:33.702Z,17.05
2023-11-23T09:37:00.586Z,21.80
2023-11-23T09:39:28.793Z,19.85
2023-11-23T09:42:00.380Z,20.92
2023-11-23T09:44:27.546Z,16.92
2023-11-23T09:46:56.636Z,25.55
2023-11-23T09:49:26.911Z,13.88
2023-11-23T09:52:02.130Z,10.30
2023-11-23T09:54:33.886Z,18.27
2023-11-23T09:57:02.677Z,19.23
2023-11-23T09:59:30.057Z,19.10
2023-11-23T10:02:05.912Z,19.63
2023-11-23T10:04:33.699Z,18.30
2023-11-23T10:07:02.661Z,17.60
2023-11-23T10:09:34.474Z,10.18
2023-11-23T10:12:02.523Z,16.00
2023-11-23T10:14:30.707Z,15.13
2023-11-23T10:16:58.057Z,24.05
2023-11-23T10:19:25.335Z,19.27
2023-11-23T10:22:01.045Z,13.73
2023-11-23T10:24:31.518Z,13.88
2023-11-23T10:26:58.865Z,18.90
2023-11-23T10:29:33.319Z,8.98
2023-11-23T10:32:02.874Z,16.45
2023-11-23T10:34:31.296Z,18.83
2023-11-23T10:36:59.189Z,14.02
2023-11-23T10:39:28.731Z,16.58
2023-11-23T10:41:56.344Z,10.80
2023-11-23T10:44:24.044Z,14.80
2023-11-23T10:46:54.796Z,18.00
2023-11-23T10:49:23.955Z,13.45
2023-11-23T10:51:53.242Z,10.70
2023-11-23T10:54:20.195Z,15.90
2023-11-23T10:56:47.853Z,12.55
2023-11-23T10:59:21.483Z,17.05
2023-11-23T11:01:54.909Z,11.32
2023-11-23T11:04:23.645Z,9.77
2023-11-23T11:06:55.643Z,9.27
2023-11-23T11:09:30.562Z,9.82
2023-11-23T11:11:58.220Z,15.30
2023-11-23T11:14:52.278Z,9.85
2023-11-23T11:17:19.236Z,8.90
2023-11-23T11:19:50.266Z,14.23
2023-11-23T11:22:17.696Z,12.48
2023-11-23T11:24:47.769Z,11.40
2023-11-23T11:27:15.426Z,16.52
2023-11-23T11:29:52.926Z,11.30
2023-11-23T11:32:22.604Z,10.57
2023-11-23T11:35:00.112Z,9.90
2023-11-23T11:37:31.105Z,19.65
2023-11-23T11:40:00.253Z,12.55
2023-11-23T11:42:27.175Z,9.82
2023-11-23T11:44:54.963Z,10.05
2023-11-23T11:47:22.112Z,13.73
2023-11-23T11:49:50.828Z,18.27
2023-11-23T11:52:18.147Z,16.52
2023-11-23T11:54:46.006Z,13.15
2023-11-23T11:57:13.288Z,10.15
2023-11-23T11:59:42.229Z,11.02
2023-11-23T12:02:11.302Z,12.90
2023-11-23T12:04:39.442Z,14.82
2023-11-23T12:07:15.612Z,10.35
2023-11-23T12:09:46.707Z,14.50
2023-11-23T12:12:14.559Z,12.57
2023-11-23T12:14:41.739Z,17.38
2023-11-23T12:17:13.525Z,11.95
2023-11-23T12:19:55.318Z,13.43
2023-11-23T12:22:24.433Z,12.82
2023-11-23T12:24:52.365Z,9.38
2023-11-23T12:27:22.249Z,15.30
2023-11-23T12:29:49.799Z,13.63
2023-11-23T12:32:17.951Z,13.57
2023-11-23T12:34:45.043Z,14.20
2023-11-23T12:37:11.924Z,13.63
2023-11-23T12:39:39.118Z,13.10
2023-11-23T12:42:06.218Z,14.18
2023-11-23T12:44:36.540Z,10.35
2023-11-23T12:47:04.191Z,9.05
2023-11-23T12:49:31.306Z,13.75
2023-11-23T12:51:59.756Z,16.27
2023-11-23T12:54:26.710Z,12.93
2023-11-23T12:56:53.780Z,13.15
2023-11-23T12:59:21.040Z,14.80
2023-11-23T13:01:48.356Z,15.57
2023-11-23T13:04:20.450Z,9.88
2023-11-23T13:06:48.195Z,14.98
2023-11-23T13:09:19.665Z,16.25
2023-11-23T13:11:46.781Z,15.27
2023-11-23T13:14:13.692Z,12.98
2023-11-23T13:16:41.083Z,15.13
2023-11-23T13:19:17.088Z,13.07
2023-11-23T13:21:54.715Z,13.27
2023-11-23T13:24:21.998Z,13.05
2023-11-23T13:26:50.951Z,15.18
2023-11-23T13:29:17.998Z,19.27
2023-11-23T13:31:45.265Z,22.52
2023-11-23T13:34:13.241Z,16.85
2023-11-23T13:36:40.529Z,12.10
2023-11-23T13:39:09.931Z,15.93
2023-11-23T13:41:41.075Z,13.95
2023-11-23T13:44:07.942Z,18.92
2023-11-23T13:46:34.921Z,17.15
2023-11-23T13:49:01.967Z,17.48
2023-11-23T13:51:31.430Z,13.05
2023-11-23T13:53:59.578Z,18.73
2023-11-23T13:56:27.163Z,18.58
2023-11-23T13:58:54.303Z,13.18
2023-11-23T14:01:21.475Z,24.33
2023-11-23T14:03:48.664Z,17.63
2023-11-23T14:06:17.833Z,14.32
2023-11-23T14:08:45.700Z,13.88
2023-11-23T14:11:12.884Z,17.30
2023-11-23T14:13:39.906Z,15.50
2023-11-23T14:16:11.018Z,14.45
2023-11-23T14:18:40.934Z,16.40
2023-11-23T14:21:08.466Z,19.10
2023-11-23T14:23:35.866Z,15.55
2023-11-23T14:26:03.746Z,24.88
2023-11-23T14:28:30.914Z,17.05
2023-11-23T14:31:00.121Z,12.07
2023-11-23T14:33:30.264Z,18.50
2023-11-23T14:35:58.212Z,15.13
2023-11-23T14:38:26.655Z,23.13
2023-11-23T14:40:54.636Z,19.83
2023-11-23T14:43:23.157Z,11.25
2023-11-23T14:45:51.186Z,15.88
2023-11-23T14:48:19.249Z,22.77
2023-11-23T14:50:46.595Z,16.25
2023-11-23T14:53:16.794Z,17.60
2023-11-23T14:55:43.811Z,20.80
2023-11-23T14:58:10.798Z,14.32
2023-11-23T15:00:42.270Z,15.32
2023-11-23T15:03:09.454Z,23.92
2023-11-23T15:05:36.356Z,11.43
2023-11-23T15:08:06.918Z,17.80
2023-11-23T15:10:34.559Z,18.65
2023-11-23T15:13:02.751Z,16.35
2023-11-23T15:15:32.751Z,24.30
2023-11-23T15:18:03.493Z,18.35
2023-11-23T15:20:31.566Z,22.70
2023-11-23T15:22:58.829Z,17.38
2023-11-23T15:25:29.798Z,16.30
2023-11-23T15:28:01.830Z,22.50
2023-11-23T15:30:30.176Z,22.55
2023-11-23T15:32:59.038Z,19.55
2023-11-23T15:35:26.083Z,17.60
2023-11-23T15:37:52.964Z,23.35
2023-11-23T15:40:20.788Z,16.50
2023-11-23T15:42:48.250Z,21.77
2023-11-23T15:45:16.189Z,25.02
2023-11-23T15:47:43.459Z,22.65
2023-11-23T15:50:11.195Z,21.52
2023-11-23T15:52:39.581Z,20.15
2023-11-23T15:55:09.935Z,19.85
2023-11-23T15:57:37.810Z,18.13
2023-11-23T16:00:07.793Z,21.05
2023-11-23T16:02:40.054Z,19.08
2023-11-23T16:05:09.264Z,22.37
2023-11-23T16:07:37.626Z,21.52
2023-11-23T16:10:05.861Z,21.88
2023-11-23T16:12:33.515Z,20.02
2023-11-23T16:15:02.665Z,19.38
2023-11-23T16:17:30.152Z,20.77
2023-11-23T16:19:57.178Z,23.85
2023-11-23T16:22:24.241Z,23.35
2023-11-23T16:24:52.804Z,22.95
2023-11-23T16:27:19.926Z,21.05
2023-11-23T16:29:49.661Z,22.10
2023-11-23T16:32:17.458Z,30.73
2023-11-23T16:34:44.348Z,23.95
2023-11-23T16:37:12.585Z,23.85
2023-11-23T16:39:39.988Z,25.88
2023-11-23T16:42:08.137Z,20.73
2023-11-23T16:44:36.017Z,33.65
2023-11-23T16:47:02.917Z,24.77
2023-11-23T16:49:29.977Z,27.92
2023-11-23T16:51:56.925Z,28.55
2023-11-23T16:54:23.877Z,28.52
2023-11-23T16:56:52.255Z,27.13
2023-11-23T16:59:19.512Z,28.33
2023-11-23T17:01:46.512Z,33.03
2023-11-23T17:04:14.453Z,38.90
2023-11-23T17:06:43.910Z,30.90
2023-11-23T17:09:11.454Z,31.55
2023-11-23T17:11:38.596Z,25.02
2023-11-23T17:14:07.397Z,27.55
2023-11-23T17:16:35.637Z,29.30
2023-11-23T17:19:02.629Z,30.13
2023-11-23T17:21:30.985Z,38.70
2023-11-23T17:23:58.394Z,45.55
2023-11-23T17:26:25.616Z,28.73
2023-11-23T17:28:55.589Z,33.92
2023-11-23T17:31:26.752Z,25.58
2023-11-23T17:33:53.857Z,35.33
2023-11-23T17:36:21.697Z,40.15
2023-11-23T17:38:49.374Z,45.45
2023-11-23T17:41:19.155Z,32.65
2023-11-23T17:43:47.558Z,31.92
2023-11-23T17:46:15.305Z,34.08
2023-11-23T17:48:42.418Z,35.35
2023-11-23T17:51:11.120Z,27.73
2023-11-23T17:53:38.071Z,27.52
2023-11-23T17:56:06.910Z,24.70
2023-11-23T17:58:33.870Z,30.63
2023-11-23T18:01:00.970Z,32.00
2023-11-23T18:03:28.015Z,16.55
2023-11-23T18:05:55.068Z,9.65
2023-11-23T18:08:24.914Z,13.15
2023-11-23T18:10:52.143Z,11.15
2023-11-23T18:13:19.561Z,10.38
2023-11-23T18:15:48.042Z,15.90
2023-11-23T18:18:23.543Z,10.88
2023-11-23T18:20:53.003Z,11.70
2023-11-23T18:23:21.032Z,13.40
2023-11-23T18:25:50.371Z,12.00
2023-11-23T18:28:18.765Z,12.73
2023-11-23T18:30:45.823Z,12.60
2023-11-23T18:33:12.975Z,11.95
2023-11-23T18:35:40.118Z,14.77
2023-11-23T18:38:07.305Z,14.95
2023-11-23T18:40:34.784Z,14.40
2023-11-23T18:43:04.046Z,11.80
2023-11-23T18:45:34.788Z,16.80
2023-11-23T18:48:03.674Z,15.57
2023-11-23T18:50:30.767Z,12.48
2023-11-23T18:52:59.578Z,13.43
2023-11-23T18:55:27.676Z,18.50
2023-11-23T18:57:55.275Z,16.77
2023-11-23T19:00:23.571Z,15.38
2023-11-23T19:02:53.209Z,18.83
2023-11-23T19:05:20.598Z,14.05
2023-11-23T19:07:48.871Z,16.23
2023-11-23T23:54:31.884Z,10.02
2023-11-23T23:56:58.953Z,16.30
2023-11-23T23:59:26.177Z,23.65
